sensor_id;sensor_type;location;lat;lon;timestamp;temperature;humidity
50556;DHT22;36508;52.512;13.450;2024-03-22T00:01:16;8.70;99.90
50556;DHT22;36508;52.512;13.450;2024-03-22T00:03:41;8.70;99.90
50556;DHT22;36508;52.512;13.450;2024-03-22T00:06:07;8.70;99.90
50556;DHT22;36508;52.512;13.450;2024-03-22T00:08:32;8.80;99.90
50556;DHT22;36508;52.512;13.450;2024-03-22T00:10:58;8.70;99.90
50556;DHT22;36508;52.512;13.450;2024-03-22T00:13:23;8.70;99.90
50556;DHT22;36508;52.512;13.450;2024-03-22T00:15:49;8.80;99.90
50556;DHT22;36508;52.512;13.450;2024-03-22T00:18:15;8.80;99.90
50556;DHT22;36508;52.512;13.450;2024-03-22T00:20:40;8.80;99.90
50556;DHT22;36508;52.512;13.450;2024-03-22T00:23:06;8.70;99.90
50556;DHT22;36508;52.512;13.450;2024-03-22T00:25:32;8.70;99.90
50556;DHT22;36508;52.512;13.450;2024-03-22T00:27:57;8.80;99.90
50556;DHT22;36508;52.512;13.450;2024-03-22T00:30:23;8.70;99.90
50556;DHT22;36508;52.512;13.450;2024-03-22T00:32:48;8.60;99.90
50556;DHT22;36508;52.512;13.450;2024-03-22T00:35:14;8.70;99.90
50556;DHT22;36508;52.512;13.450;2024-03-22T00:37:39;8.70;99.90
50556;DHT22;36508;52.512;13.450;2024-03-22T00:40:06;8.70;99.90
50556;DHT22;36508;52.512;13.450;2024-03-22T00:42:31;8.70;99.90
50556;DHT22;36508;52.512;13.450;2024-03-22T00:44:57;8.80;99.90
50556;DHT22;36508;52.512;13.450;2024-03-22T00:47:23;8.80;99.90
50556;DHT22;36508;52.512;13.450;2024-03-22T00:49:49;8.90;99.90
50556;DHT22;36508;52.512;13.450;2024-03-22T00:54:44;9.10;99.90
50556;DHT22;36508;52.512;13.450;2024-03-22T00:57:10;9.10;99.90
50556;DHT22;36508;52.512;13.450;2024-03-22T00:59:35;9.10;99.90
50556;DHT22;36508;52.512;13.450;2024-03-22T01:02:01;9.10;99.90
50556;DHT22;36508;52.512;13.450;2024-03-22T01:04:26;9.20;99.90
50556;DHT22;36508;52.512;13.450;2024-03-22T01:06:52;9.20;99.90
50556;DHT22;36508;52.512;13.450;2024-03-22T01:09:18;9.00;99.90
50556;DHT22;36508;52.512;13.450;2024-03-22T01:11:47;9.10;99.90
50556;DHT22;36508;52.512;13.450;2024-03-22T01:14:13;9.10;99.90
50556;DHT22;36508;52.512;13.450;2024-03-22T01:16:38;9.10;99.90
50556;DHT22;36508;52.512;13.450;2024-03-22T01:19:05;9.10;99.90
50556;DHT22;36508;52.512;13.450;2024-03-22T01:21:30;9.10;99.90
50556;DHT22;36508;52.512;13.450;2024-03-22T01:23:56;9.00;99.90
50556;DHT22;36508;52.512;13.450;2024-03-22T01:26:21;8.90;99.90
50556;DHT22;36508;52.512;13.450;2024-03-22T01:28:47;8.90;99.90
50556;DHT22;36508;52.512;13.450;2024-03-22T01:31:13;8.90;99.90
50556;DHT22;36508;52.512;13.450;2024-03-22T01:33:38;8.90;99.90
50556;DHT22;36508;52.512;13.450;2024-03-22T01:36:04;8.80;99.90
50556;DHT22;36508;52.512;13.450;2024-03-22T01:38:31;8.80;99.90
50556;DHT22;36508;52.512;13.450;2024-03-22T01:40:56;8.60;99.90
50556;DHT22;36508;52.512;13.450;2024-03-22T01:43:22;8.60;99.90
50556;DHT22;36508;52.512;13.450;2024-03-22T01:45:48;8.50;99.90
50556;DHT22;36508;52.512;13.450;2024-03-22T01:48:14;8.40;99.90
50556;DHT22;36508;52.512;13.450;2024-03-22T01:50:40;8.50;99.90
50556;DHT22;36508;52.512;13.450;2024-03-22T01:53:06;8.50;99.90
50556;DHT22;36508;52.512;13.450;2024-03-22T01:55:31;8.50;99.90
50556;DHT22;36508;52.512;13.450;2024-03-22T01:57:57;8.50;99.90
50556;DHT22;36508;52.512;13.450;2024-03-22T02:00:23;8.50;99.90
50556;DHT22;36508;52.512;13.450;2024-03-22T02:02:49;8.40;99.90
50556;DHT22;36508;52.512;13.450;2024-03-22T02:05:16;8.50;99.90
50556;DHT22;36508;52.512;13.450;2024-03-22T02:07:44;8.50;99.90
50556;DHT22;36508;52.512;13.450;2024-03-22T02:10:10;8.50;99.90
50556;DHT22;36508;52.512;13.450;2024-03-22T02:12:38;8.40;99.90
50556;DHT22;36508;52.512;13.450;2024-03-22T02:15:03;8.50;99.90
50556;DHT22;36508;52.512;13.450;2024-03-22T02:17:29;8.50;99.90
50556;DHT22;36508;52.512;13.450;2024-03-22T02:19:55;8.50;99.90
50556;DHT22;36508;52.512;13.450;2024-03-22T02:22:20;8.50;99.90
50556;DHT22;36508;52.512;13.450;2024-03-22T02:27:14;8.60;99.90
50556;DHT22;36508;52.512;13.450;2024-03-22T02:29:39;8.60;99.90
50556;DHT22;36508;52.512;13.450;2024-03-22T02:32:05;8.60;99.90
50556;DHT22;36508;52.512;13.450;2024-03-22T02:34:31;8.60;99.90
50556;DHT22;36508;52.512;13.450;2024-03-22T02:36:57;8.90;99.90
50556;DHT22;36508;52.512;13.450;2024-03-22T02:39:22;8.80;99.90
50556;DHT22;36508;52.512;13.450;2024-03-22T02:41:48;8.80;99.90
50556;DHT22;36508;52.512;13.450;2024-03-22T02:44:13;8.80;99.90
50556;DHT22;36508;52.512;13.450;2024-03-22T02:46:39;8.70;99.90
50556;DHT22;36508;52.512;13.450;2024-03-22T02:49:04;8.80;99.90
50556;DHT22;36508;52.512;13.450;2024-03-22T02:51:30;8.80;99.90
50556;DHT22;36508;52.512;13.450;2024-03-22T02:53:55;8.80;99.90
50556;DHT22;36508;52.512;13.450;2024-03-22T02:56:21;8.70;99.90
50556;DHT22;36508;52.512;13.450;2024-03-22T02:58:46;8.60;99.90
50556;DHT22;36508;52.512;13.450;2024-03-22T03:01:14;8.60;99.90
50556;DHT22;36508;52.512;13.450;2024-03-22T03:03:39;8.60;99.90
50556;DHT22;36508;52.512;13.450;2024-03-22T03:06:05;8.60;99.90
50556;DHT22;36508;52.512;13.450;2024-03-22T03:08:31;8.50;99.90
50556;DHT22;36508;52.512;13.450;2024-03-22T03:10:56;8.60;99.90
50556;DHT22;36508;52.512;13.450;2024-03-22T03:13:22;8.50;99.90
50556;DHT22;36508;52.512;13.450;2024-03-22T03:15:47;8.50;99.90
50556;DHT22;36508;52.512;13.450;2024-03-22T03:18:13;8.60;99.90
50556;DHT22;36508;52.512;13.450;2024-03-22T03:20:38;8.60;99.90
50556;DHT22;36508;52.512;13.450;2024-03-22T03:23:04;8.60;99.90
50556;DHT22;36508;52.512;13.450;2024-03-22T03:25:29;8.60;99.90
50556;DHT22;36508;52.512;13.450;2024-03-22T03:27:55;8.50;99.90
50556;DHT22;36508;52.512;13.450;2024-03-22T03:30:21;8.60;99.90
50556;DHT22;36508;52.512;13.450;2024-03-22T03:32:46;8.70;99.90
50556;DHT22;36508;52.512;13.450;2024-03-22T03:35:12;8.70;99.90
50556;DHT22;36508;52.512;13.450;2024-03-22T03:37:37;8.70;99.90
50556;DHT22;36508;52.512;13.450;2024-03-22T03:40:03;8.70;99.90
50556;DHT22;36508;52.512;13.450;2024-03-22T03:42:29;8.70;99.90
50556;DHT22;36508;52.512;13.450;2024-03-22T03:44:55;8.80;99.90
50556;DHT22;36508;52.512;13.450;2024-03-22T03:47:21;8.80;99.90
50556;DHT22;36508;52.512;13.450;2024-03-22T03:49:46;8.80;99.90
50556;DHT22;36508;52.512;13.450;2024-03-22T03:52:12;8.90;99.90
50556;DHT22;36508;52.512;13.450;2024-03-22T03:54:37;8.80;99.90
50556;DHT22;36508;52.512;13.450;2024-03-22T03:57:03;8.80;99.90
50556;DHT22;36508;52.512;13.450;2024-03-22T03:59:29;8.80;99.90
50556;DHT22;36508;52.512;13.450;2024-03-22T04:01:55;8.80;99.90
50556;DHT22;36508;52.512;13.450;2024-03-22T04:04:20;8.90;99.90
50556;DHT22;36508;52.512;13.450;2024-03-22T04:06:46;8.90;99.90
50556;DHT22;36508;52.512;13.450;2024-03-22T04:09:11;8.90;99.90
50556;DHT22;36508;52.512;13.450;2024-03-22T04:11:37;8.90;99.90
50556;DHT22;36508;52.512;13.450;2024-03-22T04:14:04;8.80;99.90
50556;DHT22;36508;52.512;13.450;2024-03-22T04:16:30;8.80;99.90
50556;DHT22;36508;52.512;13.450;2024-03-22T04:18:56;8.90;99.90
50556;DHT22;36508;52.512;13.450;2024-03-22T04:21:22;8.90;99.90
50556;DHT22;36508;52.512;13.450;2024-03-22T04:23:47;8.90;99.90
50556;DHT22;36508;52.512;13.450;2024-03-22T04:26:13;8.90;99.90
50556;DHT22;36508;52.512;13.450;2024-03-22T04:28:38;8.90;99.90
50556;DHT22;36508;52.512;13.450;2024-03-22T04:31:06;9.00;99.90
50556;DHT22;36508;52.512;13.450;2024-03-22T04:33:34;9.00;99.90
50556;DHT22;36508;52.512;13.450;2024-03-22T04:36:00;9.00;99.90
50556;DHT22;36508;52.512;13.450;2024-03-22T04:38:27;9.00;99.90
50556;DHT22;36508;52.512;13.450;2024-03-22T04:40:55;9.00;99.90
50556;DHT22;36508;52.512;13.450;2024-03-22T04:43:25;9.00;99.90
50556;DHT22;36508;52.512;13.450;2024-03-22T04:45:53;9.10;99.90
50556;DHT22;36508;52.512;13.450;2024-03-22T04:48:20;8.90;99.90
50556;DHT22;36508;52.512;13.450;2024-03-22T04:50:46;8.90;99.90
50556;DHT22;36508;52.512;13.450;2024-03-22T04:53:13;8.90;99.90
50556;DHT22;36508;52.512;13.450;2024-03-22T04:55:39;8.80;99.90
50556;DHT22;36508;52.512;13.450;2024-03-22T04:58:13;8.90;99.90
50556;DHT22;36508;52.512;13.450;2024-03-22T05:00:39;9.00;99.90
50556;DHT22;36508;52.512;13.450;2024-03-22T05:03:05;9.00;99.90
50556;DHT22;36508;52.512;13.450;2024-03-22T05:05:30;9.00;99.90
50556;DHT22;36508;52.512;13.450;2024-03-22T05:07:56;9.00;99.90
50556;DHT22;36508;52.512;13.450;2024-03-22T05:10:21;9.00;99.90
50556;DHT22;36508;52.512;13.450;2024-03-22T05:12:48;9.10;99.90
50556;DHT22;36508;52.512;13.450;2024-03-22T05:15:13;9.00;99.90
50556;DHT22;36508;52.512;13.450;2024-03-22T05:17:39;9.00;99.90
50556;DHT22;36508;52.512;13.450;2024-03-22T05:20:07;9.10;99.90
50556;DHT22;36508;52.512;13.450;2024-03-22T05:22:37;9.10;99.90
50556;DHT22;36508;52.512;13.450;2024-03-22T05:25:02;9.10;99.90
50556;DHT22;36508;52.512;13.450;2024-03-22T05:27:30;9.10;99.90
50556;DHT22;36508;52.512;13.450;2024-03-22T05:29:55;9.20;99.90
50556;DHT22;36508;52.512;13.450;2024-03-22T05:32:21;9.30;99.90
50556;DHT22;36508;52.512;13.450;2024-03-22T05:34:46;9.20;99.90
50556;DHT22;36508;52.512;13.450;2024-03-22T05:37:12;9.30;99.90
50556;DHT22;36508;52.512;13.450;2024-03-22T05:39:38;9.20;99.90
50556;DHT22;36508;52.512;13.450;2024-03-22T05:42:05;9.20;99.90
50556;DHT22;36508;52.512;13.450;2024-03-22T05:44:30;9.10;99.90
50556;DHT22;36508;52.512;13.450;2024-03-22T05:46:56;9.00;99.90
50556;DHT22;36508;52.512;13.450;2024-03-22T05:49:21;9.10;99.90
50556;DHT22;36508;52.512;13.450;2024-03-22T05:51:47;9.20;99.90
50556;DHT22;36508;52.512;13.450;2024-03-22T05:54:12;9.20;99.90
50556;DHT22;36508;52.512;13.450;2024-03-22T05:56:38;9.30;99.90
50556;DHT22;36508;52.512;13.450;2024-03-22T05:59:03;9.30;99.90
50556;DHT22;36508;52.512;13.450;2024-03-22T06:01:29;9.40;99.90
50556;DHT22;36508;52.512;13.450;2024-03-22T06:03:54;9.50;99.90
50556;DHT22;36508;52.512;13.450;2024-03-22T06:06:20;9.50;99.90
50556;DHT22;36508;52.512;13.450;2024-03-22T06:08:50;9.60;99.90
50556;DHT22;36508;52.512;13.450;2024-03-22T06:11:18;9.80;99.90
50556;DHT22;36508;52.512;13.450;2024-03-22T06:13:43;9.70;99.90
50556;DHT22;36508;52.512;13.450;2024-03-22T06:16:09;9.60;99.90
50556;DHT22;36508;52.512;13.450;2024-03-22T06:18:35;9.60;99.90
50556;DHT22;36508;52.512;13.450;2024-03-22T06:21:00;9.50;99.90
50556;DHT22;36508;52.512;13.450;2024-03-22T06:23:29;9.50;99.90
50556;DHT22;36508;52.512;13.450;2024-03-22T06:25:58;9.60;99.90
50556;DHT22;36508;52.512;13.450;2024-03-22T06:28:27;9.60;99.90
50556;DHT22;36508;52.512;13.450;2024-03-22T06:30:53;9.70;99.90
50556;DHT22;36508;52.512;13.450;2024-03-22T06:33:19;9.90;99.90
50556;DHT22;36508;52.512;13.450;2024-03-22T06:35:46;9.80;99.90
50556;DHT22;36508;52.512;13.450;2024-03-22T06:38:12;9.90;99.90
50556;DHT22;36508;52.512;13.450;2024-03-22T06:40:37;9.90;99.90
50556;DHT22;36508;52.512;13.450;2024-03-22T06:43:03;9.90;99.90
50556;DHT22;36508;52.512;13.450;2024-03-22T06:45:29;9.90;99.90
50556;DHT22;36508;52.512;13.450;2024-03-22T06:47:57;9.90;99.90
50556;DHT22;36508;52.512;13.450;2024-03-22T06:50:23;9.90;99.90
50556;DHT22;36508;52.512;13.450;2024-03-22T06:52:53;9.90;99.90
50556;DHT22;36508;52.512;13.450;2024-03-22T06:55:19;9.90;99.90
50556;DHT22;36508;52.512;13.450;2024-03-22T06:57:49;9.90;99.90
50556;DHT22;36508;52.512;13.450;2024-03-22T07:00:18;10.00;99.90
50556;DHT22;36508;52.512;13.450;2024-03-22T07:02:44;10.00;99.90
50556;DHT22;36508;52.512;13.450;2024-03-22T07:05:10;9.90;99.90
50556;DHT22;36508;52.512;13.450;2024-03-22T07:07:37;9.90;99.90
50556;DHT22;36508;52.512;13.450;2024-03-22T07:10:03;10.10;99.90
50556;DHT22;36508;52.512;13.450;2024-03-22T07:12:38;10.10;99.90
50556;DHT22;36508;52.512;13.450;2024-03-22T07:15:05;10.10;99.90
50556;DHT22;36508;52.512;13.450;2024-03-22T07:17:31;10.30;99.90
50556;DHT22;36508;52.512;13.450;2024-03-22T07:19:56;10.20;99.90
50556;DHT22;36508;52.512;13.450;2024-03-22T07:22:22;10.30;99.90
50556;DHT22;36508;52.512;13.450;2024-03-22T07:24:48;10.30;99.90
50556;DHT22;36508;52.512;13.450;2024-03-22T07:27:14;10.30;99.90
50556;DHT22;36508;52.512;13.450;2024-03-22T07:29:41;10.30;99.90
50556;DHT22;36508;52.512;13.450;2024-03-22T07:32:07;10.20;99.90
50556;DHT22;36508;52.512;13.450;2024-03-22T07:34:32;10.20;99.90
50556;DHT22;36508;52.512;13.450;2024-03-22T07:36:58;10.20;99.90
50556;DHT22;36508;52.512;13.450;2024-03-22T07:39:24;10.30;99.90
50556;DHT22;36508;52.512;13.450;2024-03-22T07:41:49;10.30;99.90
50556;DHT22;36508;52.512;13.450;2024-03-22T07:44:15;10.40;99.90
50556;DHT22;36508;52.512;13.450;2024-03-22T07:46:45;10.40;99.90
50556;DHT22;36508;52.512;13.450;2024-03-22T07:49:14;10.40;99.90
50556;DHT22;36508;52.512;13.450;2024-03-22T07:51:40;10.40;99.90
50556;DHT22;36508;52.512;13.450;2024-03-22T07:54:05;10.20;99.90
50556;DHT22;36508;52.512;13.450;2024-03-22T07:56:31;10.20;99.90
50556;DHT22;36508;52.512;13.450;2024-03-22T07:58:57;10.30;99.90
50556;DHT22;36508;52.512;13.450;2024-03-22T08:03:53;10.30;99.90
50556;DHT22;36508;52.512;13.450;2024-03-22T08:06:19;10.40;99.90
50556;DHT22;36508;52.512;13.450;2024-03-22T08:08:45;10.40;99.90
50556;DHT22;36508;52.512;13.450;2024-03-22T08:11:11;10.40;99.90
50556;DHT22;36508;52.512;13.450;2024-03-22T08:13:36;10.50;99.90
50556;DHT22;36508;52.512;13.450;2024-03-22T08:16:03;10.70;99.90
50556;DHT22;36508;52.512;13.450;2024-03-22T08:18:28;10.90;99.90
50556;DHT22;36508;52.512;13.450;2024-03-22T08:20:54;11.00;99.90
50556;DHT22;36508;52.512;13.450;2024-03-22T08:23:20;11.10;99.90
50556;DHT22;36508;52.512;13.450;2024-03-22T08:25:48;11.00;99.90
50556;DHT22;36508;52.512;13.450;2024-03-22T08:28:13;10.90;99.90
50556;DHT22;36508;52.512;13.450;2024-03-22T08:30:39;10.90;99.90
50556;DHT22;36508;52.512;13.450;2024-03-22T08:33:05;11.00;99.90
50556;DHT22;36508;52.512;13.450;2024-03-22T08:35:31;11.00;99.90
50556;DHT22;36508;52.512;13.450;2024-03-22T08:37:56;11.00;99.90
50556;DHT22;36508;52.512;13.450;2024-03-22T08:40:22;11.10;99.90
50556;DHT22;36508;52.512;13.450;2024-03-22T08:42:48;11.10;99.90
50556;DHT22;36508;52.512;13.450;2024-03-22T08:45:14;11.00;99.90
50556;DHT22;36508;52.512;13.450;2024-03-22T08:47:42;11.10;99.90
50556;DHT22;36508;52.512;13.450;2024-03-22T08:50:08;11.10;99.90
50556;DHT22;36508;52.512;13.450;2024-03-22T08:52:33;11.20;99.90
50556;DHT22;36508;52.512;13.450;2024-03-22T08:55:01;11.10;99.90
50556;DHT22;36508;52.512;13.450;2024-03-22T08:57:26;11.30;99.90
50556;DHT22;36508;52.512;13.450;2024-03-22T08:59:52;11.40;99.90
50556;DHT22;36508;52.512;13.450;2024-03-22T09:02:17;11.40;99.90
50556;DHT22;36508;52.512;13.450;2024-03-22T09:04:43;11.50;99.90
50556;DHT22;36508;52.512;13.450;2024-03-22T09:07:08;11.50;99.90
50556;DHT22;36508;52.512;13.450;2024-03-22T09:09:34;11.60;99.90
50556;DHT22;36508;52.512;13.450;2024-03-22T09:11:59;11.60;99.90
50556;DHT22;36508;52.512;13.450;2024-03-22T09:14:25;11.70;99.90
50556;DHT22;36508;52.512;13.450;2024-03-22T09:16:51;11.70;99.90
50556;DHT22;36508;52.512;13.450;2024-03-22T09:19:16;11.70;99.90
50556;DHT22;36508;52.512;13.450;2024-03-22T09:21:42;11.70;99.90
50556;DHT22;36508;52.512;13.450;2024-03-22T09:24:10;11.80;99.90
50556;DHT22;36508;52.512;13.450;2024-03-22T09:26:35;11.90;99.90
50556;DHT22;36508;52.512;13.450;2024-03-22T09:29:01;12.10;99.90
50556;DHT22;36508;52.512;13.450;2024-03-22T09:31:27;12.30;99.90
50556;DHT22;36508;52.512;13.450;2024-03-22T09:33:52;12.20;99.90
50556;DHT22;36508;52.512;13.450;2024-03-22T09:36:18;12.00;99.90
50556;DHT22;36508;52.512;13.450;2024-03-22T09:38:44;12.00;99.90
50556;DHT22;36508;52.512;13.450;2024-03-22T09:41:09;12.10;99.90
50556;DHT22;36508;52.512;13.450;2024-03-22T09:43:36;12.10;99.90
50556;DHT22;36508;52.512;13.450;2024-03-22T09:46:04;12.30;99.90
50556;DHT22;36508;52.512;13.450;2024-03-22T09:48:32;12.30;99.90
50556;DHT22;36508;52.512;13.450;2024-03-22T09:50:58;12.40;99.90
50556;DHT22;36508;52.512;13.450;2024-03-22T09:53:27;12.50;99.90
50556;DHT22;36508;52.512;13.450;2024-03-22T09:55:55;12.30;99.90
50556;DHT22;36508;52.512;13.450;2024-03-22T09:58:24;12.20;99.90
50556;DHT22;36508;52.512;13.450;2024-03-22T10:00:50;12.20;99.90
50556;DHT22;36508;52.512;13.450;2024-03-22T10:03:16;12.10;99.90
50556;DHT22;36508;52.512;13.450;2024-03-22T10:05:41;12.10;99.90
50556;DHT22;36508;52.512;13.450;2024-03-22T10:08:07;12.20;99.90
50556;DHT22;36508;52.512;13.450;2024-03-22T10:10:33;12.30;99.90
50556;DHT22;36508;52.512;13.450;2024-03-22T10:13:03;12.30;99.90
50556;DHT22;36508;52.512;13.450;2024-03-22T10:15:30;12.40;99.90
50556;DHT22;36508;52.512;13.450;2024-03-22T10:17:57;12.50;99.90
50556;DHT22;36508;52.512;13.450;2024-03-22T10:20:22;12.60;99.90
50556;DHT22;36508;52.512;13.450;2024-03-22T10:22:49;12.50;99.90
50556;DHT22;36508;52.512;13.450;2024-03-22T10:25:15;12.50;99.90
50556;DHT22;36508;52.512;13.450;2024-03-22T10:27:41;12.60;99.90
50556;DHT22;36508;52.512;13.450;2024-03-22T10:30:09;12.70;99.90
50556;DHT22;36508;52.512;13.450;2024-03-22T10:32:38;12.70;99.90
50556;DHT22;36508;52.512;13.450;2024-03-22T10:35:04;12.80;99.90
50556;DHT22;36508;52.512;13.450;2024-03-22T10:37:32;12.90;99.90
50556;DHT22;36508;52.512;13.450;2024-03-22T10:39:58;12.90;99.90
50556;DHT22;36508;52.512;13.450;2024-03-22T10:42:26;13.00;99.90
50556;DHT22;36508;52.512;13.450;2024-03-22T10:44:52;12.90;99.90
50556;DHT22;36508;52.512;13.450;2024-03-22T10:47:19;13.10;99.90
50556;DHT22;36508;52.512;13.450;2024-03-22T10:49:48;13.30;99.90
50556;DHT22;36508;52.512;13.450;2024-03-22T10:52:15;13.80;99.90
50556;DHT22;36508;52.512;13.450;2024-03-22T10:54:44;14.10;99.90
50556;DHT22;36508;52.512;13.450;2024-03-22T10:57:12;14.60;99.90
50556;DHT22;36508;52.512;13.450;2024-03-22T10:59:41;14.70;99.90
50556;DHT22;36508;52.512;13.450;2024-03-22T11:02:06;15.10;99.90
50556;DHT22;36508;52.512;13.450;2024-03-22T11:04:35;15.50;99.90
50556;DHT22;36508;52.512;13.450;2024-03-22T11:07:02;14.80;99.90
50556;DHT22;36508;52.512;13.450;2024-03-22T11:09:29;14.50;99.90
50556;DHT22;36508;52.512;13.450;2024-03-22T11:11:56;14.10;99.90
50556;DHT22;36508;52.512;13.450;2024-03-22T11:14:25;13.90;99.90
50556;DHT22;36508;52.512;13.450;2024-03-22T11:16:52;14.20;99.90
50556;DHT22;36508;52.512;13.450;2024-03-22T11:50:08;13.30;99.90
50556;DHT22;36508;52.512;13.450;2024-03-22T11:52:35;13.30;99.90
50556;DHT22;36508;52.512;13.450;2024-03-22T11:55:00;13.30;99.90
50556;DHT22;36508;52.512;13.450;2024-03-22T11:57:27;13.20;99.90
50556;DHT22;36508;52.512;13.450;2024-03-22T11:59:59;13.10;99.90
50556;DHT22;36508;52.512;13.450;2024-03-22T12:02:25;13.10;99.90
50556;DHT22;36508;52.512;13.450;2024-03-22T12:04:51;13.10;99.90
50556;DHT22;36508;52.512;13.450;2024-03-22T12:07:17;12.90;99.90
50556;DHT22;36508;52.512;13.450;2024-03-22T12:09:44;12.70;99.90
50556;DHT22;36508;52.512;13.450;2024-03-22T12:12:11;12.70;99.90
50556;DHT22;36508;52.512;13.450;2024-03-22T12:14:38;12.60;99.90
50556;DHT22;36508;52.512;13.450;2024-03-22T12:17:04;12.50;99.90
50556;DHT22;36508;52.512;13.450;2024-03-22T12:19:30;12.60;99.90
50556;DHT22;36508;52.512;13.450;2024-03-22T12:21:56;12.50;99.90
50556;DHT22;36508;52.512;13.450;2024-03-22T12:24:22;12.60;99.90
50556;DHT22;36508;52.512;13.450;2024-03-22T12:26:48;12.40;99.90
50556;DHT22;36508;52.512;13.450;2024-03-22T12:29:15;12.30;99.90
50556;DHT22;36508;52.512;13.450;2024-03-22T12:31:41;12.10;99.90
50556;DHT22;36508;52.512;13.450;2024-03-22T12:34:07;12.10;99.90
50556;DHT22;36508;52.512;13.450;2024-03-22T12:36:33;12.10;99.90
50556;DHT22;36508;52.512;13.450;2024-03-22T12:38:58;12.10;99.90
50556;DHT22;36508;52.512;13.450;2024-03-22T12:41:25;12.10;99.90
50556;DHT22;36508;52.512;13.450;2024-03-22T12:43:51;12.00;99.90
50556;DHT22;36508;52.512;13.450;2024-03-22T12:46:16;11.90;99.90
50556;DHT22;36508;52.512;13.450;2024-03-22T12:48:42;11.90;99.90
50556;DHT22;36508;52.512;13.450;2024-03-22T12:51:07;11.90;99.90
50556;DHT22;36508;52.512;13.450;2024-03-22T12:53:33;11.90;99.90
50556;DHT22;36508;52.512;13.450;2024-03-22T12:55:59;11.90;99.90
50556;DHT22;36508;52.512;13.450;2024-03-22T12:58:24;11.90;99.90
50556;DHT22;36508;52.512;13.450;2024-03-22T13:00:50;11.90;99.90
50556;DHT22;36508;52.512;13.450;2024-03-22T13:03:15;11.80;99.90
50556;DHT22;36508;52.512;13.450;2024-03-22T13:05:41;11.80;99.90
50556;DHT22;36508;52.512;13.450;2024-03-22T13:08:07;11.80;99.90
50556;DHT22;36508;52.512;13.450;2024-03-22T13:10:33;11.70;99.90
50556;DHT22;36508;52.512;13.450;2024-03-22T13:15:30;11.70;99.90
50556;DHT22;36508;52.512;13.450;2024-03-22T13:17:57;11.60;99.90
50556;DHT22;36508;52.512;13.450;2024-03-22T13:20:23;11.60;99.90
50556;DHT22;36508;52.512;13.450;2024-03-22T13:22:48;11.50;99.90
50556;DHT22;36508;52.512;13.450;2024-03-22T13:25:14;11.60;99.90
50556;DHT22;36508;52.512;13.450;2024-03-22T13:27:41;11.60;99.90
50556;DHT22;36508;52.512;13.450;2024-03-22T13:30:07;11.70;99.90
50556;DHT22;36508;52.512;13.450;2024-03-22T13:32:37;11.70;99.90
50556;DHT22;36508;52.512;13.450;2024-03-22T13:35:04;11.70;99.90
50556;DHT22;36508;52.512;13.450;2024-03-22T13:37:30;11.70;99.90
50556;DHT22;36508;52.512;13.450;2024-03-22T13:39:56;11.70;99.90
50556;DHT22;36508;52.512;13.450;2024-03-22T13:42:22;11.80;99.90
50556;DHT22;36508;52.512;13.450;2024-03-22T13:44:47;11.80;99.90
50556;DHT22;36508;52.512;13.450;2024-03-22T13:47:13;11.90;99.90
50556;DHT22;36508;52.512;13.450;2024-03-22T13:49:39;11.90;99.90
50556;DHT22;36508;52.512;13.450;2024-03-22T13:52:07;11.90;99.90
50556;DHT22;36508;52.512;13.450;2024-03-22T13:54:33;11.90;99.90
50556;DHT22;36508;52.512;13.450;2024-03-22T13:56:58;11.90;99.90
50556;DHT22;36508;52.512;13.450;2024-03-22T13:59:29;12.00;99.90
50556;DHT22;36508;52.512;13.450;2024-03-22T14:01:56;12.00;99.90
50556;DHT22;36508;52.512;13.450;2024-03-22T14:04:22;12.00;99.90
50556;DHT22;36508;52.512;13.450;2024-03-22T14:06:48;12.00;99.90
50556;DHT22;36508;52.512;13.450;2024-03-22T14:09:14;12.10;99.90
50556;DHT22;36508;52.512;13.450;2024-03-22T14:11:41;12.20;99.90
50556;DHT22;36508;52.512;13.450;2024-03-22T14:14:09;12.30;99.90
50556;DHT22;36508;52.512;13.450;2024-03-22T14:16:37;12.40;99.90
50556;DHT22;36508;52.512;13.450;2024-03-22T14:19:03;12.40;99.90
50556;DHT22;36508;52.512;13.450;2024-03-22T14:21:29;12.40;99.90
50556;DHT22;36508;52.512;13.450;2024-03-22T14:23:55;12.60;99.90
50556;DHT22;36508;52.512;13.450;2024-03-22T14:26:21;12.50;99.90
50556;DHT22;36508;52.512;13.450;2024-03-22T14:28:47;12.50;99.90
50556;DHT22;36508;52.512;13.450;2024-03-22T14:31:13;12.50;99.90
50556;DHT22;36508;52.512;13.450;2024-03-22T14:33:39;12.50;99.90
50556;DHT22;36508;52.512;13.450;2024-03-22T14:36:07;12.50;99.90
50556;DHT22;36508;52.512;13.450;2024-03-22T14:38:33;12.50;99.90
50556;DHT22;36508;52.512;13.450;2024-03-22T14:40:59;12.60;99.90
50556;DHT22;36508;52.512;13.450;2024-03-22T14:43:25;12.60;99.90
50556;DHT22;36508;52.512;13.450;2024-03-22T14:45:52;12.50;99.90
50556;DHT22;36508;52.512;13.450;2024-03-22T14:48:21;12.40;99.90
50556;DHT22;36508;52.512;13.450;2024-03-22T14:50:47;12.30;99.90
50556;DHT22;36508;52.512;13.450;2024-03-22T14:53:14;12.20;99.90
50556;DHT22;36508;52.512;13.450;2024-03-22T14:55:51;12.20;99.90
50556;DHT22;36508;52.512;13.450;2024-03-22T14:58:16;12.30;99.90
50556;DHT22;36508;52.512;13.450;2024-03-22T15:00:42;12.20;99.90
50556;DHT22;36508;52.512;13.450;2024-03-22T15:03:15;12.20;99.90
50556;DHT22;36508;52.512;13.450;2024-03-22T15:05:41;12.20;99.90
50556;DHT22;36508;52.512;13.450;2024-03-22T15:08:06;12.20;99.90
50556;DHT22;36508;52.512;13.450;2024-03-22T15:10:32;12.20;99.90
50556;DHT22;36508;52.512;13.450;2024-03-22T15:12:57;12.20;99.90
50556;DHT22;36508;52.512;13.450;2024-03-22T15:15:23;12.20;99.90
50556;DHT22;36508;52.512;13.450;2024-03-22T15:17:49;12.10;99.90
50556;DHT22;36508;52.512;13.450;2024-03-22T15:20:15;12.10;99.90
50556;DHT22;36508;52.512;13.450;2024-03-22T15:22:41;12.20;99.90
50556;DHT22;36508;52.512;13.450;2024-03-22T15:25:06;12.20;99.90
50556;DHT22;36508;52.512;13.450;2024-03-22T15:27:32;12.30;99.90
50556;DHT22;36508;52.512;13.450;2024-03-22T15:29:57;12.20;99.90
50556;DHT22;36508;52.512;13.450;2024-03-22T15:32:23;12.20;99.90
50556;DHT22;36508;52.512;13.450;2024-03-22T15:34:52;12.20;99.90
50556;DHT22;36508;52.512;13.450;2024-03-22T15:37:17;12.10;99.90
50556;DHT22;36508;52.512;13.450;2024-03-22T15:39:43;12.10;99.90
50556;DHT22;36508;52.512;13.450;2024-03-22T15:42:08;12.10;99.90
50556;DHT22;36508;52.512;13.450;2024-03-22T15:44:34;12.00;99.90
50556;DHT22;36508;52.512;13.450;2024-03-22T15:47:00;12.10;99.90
50556;DHT22;36508;52.512;13.450;2024-03-22T15:49:27;12.10;99.90
50556;DHT22;36508;52.512;13.450;2024-03-22T15:51:53;12.00;99.90
50556;DHT22;36508;52.512;13.450;2024-03-22T15:54:19;12.00;99.90
50556;DHT22;36508;52.512;13.450;2024-03-22T15:56:45;11.90;99.90